PWSweather.com
Personal Weather Stations
Station Observations
WD4JKH
Forsyth, GA 31029

Forsyth, GA 31029

Lat: 33.033225, Lon: -83.927995

Elevation: 709

Station Type: Davis Vantage VUE

High Low Average
Temperature 69.1°F20.6°C 57.7°F14.3°C 62.8°F17.1°C
Dew Point 65.5°F18.6°C 56.9°F13.8°C 61.3°F16.3°C
Winds 7.3 mph 11.7 kmh Calm Calm 3.0 mph SW4.8 kmh SW
Wind Gusts 14.0 mph22.5 kmh 1.0 mph1.6 kmh 7.0 mph11.3 kmh
Humidity 98% 86% 95%
Pressure 30.17 in1021.7 mb 30.09 in1019.0 mb -
Precipitation 0.01 in0.3 mm - -
Hour Temp Dew Point Humidity Winds Wind Gusts Pressure Precip Precip Rate Daily Precip Total
12:02 AM 59.6°F15.3°C 58.7°F14.8°C 97% 2.6 mph SW4.2 kmh SW 6.0 mph9.7 kmh 30.12 in1020.0 mb 0.00 in0.0 mm 0.00 in0.0 mm 0.00 in0.0 mm
12:07 AM 59.5°F15.3°C 58.6°F14.8°C 97% 1.6 mph SW2.6 kmh SW 6.0 mph9.7 kmh 30.12 in1020.0 mb 0.00 in0.0 mm 0.00 in0.0 mm 0.00 in0.0 mm
12:12 AM 59.3°F15.2°C 58.1°F14.5°C 96% 2.0 mph SW3.2 kmh SW 6.0 mph9.7 kmh 30.12 in1020.0 mb 0.00 in0.0 mm 0.00 in0.0 mm 0.00 in0.0 mm
12:17 AM 59.2°F15.1°C 58.0°F14.4°C 96% 2.6 mph SW4.2 kmh SW 6.0 mph9.7 kmh 30.12 in1020.0 mb 0.00 in0.0 mm 0.00 in0.0 mm 0.00 in0.0 mm
12:22 AM 59.2°F15.1°C 58.3°F14.6°C 97% 2.2 mph SW3.5 kmh SW 4.0 mph6.4 kmh 30.12 in1020.0 mb 0.00 in0.0 mm 0.00 in0.0 mm 0.00 in0.0 mm
12:27 AM 59.2°F15.1°C 58.3°F14.6°C 97% 1.9 mph SW3.1 kmh SW 4.0 mph6.4 kmh 30.12 in1020.0 mb 0.00 in0.0 mm 0.00 in0.0 mm 0.00 in0.0 mm
12:32 AM 59.2°F15.1°C 58.3°F14.6°C 97% 1.6 mph SW2.6 kmh SW 4.0 mph6.4 kmh 30.13 in1020.3 mb 0.00 in0.0 mm 0.00 in0.0 mm 0.00 in0.0 mm
12:37 AM 59.3°F15.2°C 58.4°F14.7°C 97% 2.1 mph SW3.4 kmh SW 4.0 mph6.4 kmh 30.13 in1020.3 mb 0.00 in0.0 mm 0.00 in0.0 mm 0.00 in0.0 mm
12:42 AM 59.4°F15.2°C 58.5°F14.7°C 97% 1.7 mph SW2.7 kmh SW 4.0 mph6.4 kmh 30.13 in1020.3 mb 0.00 in0.0 mm 0.00 in0.0 mm 0.00 in0.0 mm
12:47 AM 59.5°F15.3°C 58.6°F14.8°C 97% 2.3 mph SW3.7 kmh SW 5.0 mph8.0 kmh 30.13 in1020.3 mb 0.00 in0.0 mm 0.00 in0.0 mm 0.00 in0.0 mm
12:52 AM 59.5°F15.3°C 58.4°F14.7°C 96% 1.5 mph SW2.4 kmh SW 5.0 mph8.0 kmh 30.12 in1020.0 mb 0.00 in0.0 mm 0.00 in0.0 mm 0.00 in0.0 mm
12:57 AM 59.4°F15.2°C 58.3°F14.6°C 96% 2.0 mph SW3.2 kmh SW 5.0 mph8.0 kmh 30.12 in1020.0 mb 0.00 in0.0 mm 0.00 in0.0 mm 0.00 in0.0 mm
01:02 AM 59.4°F15.2°C 58.2°F14.6°C 96% 2.4 mph SW3.9 kmh SW 4.0 mph6.4 kmh 30.12 in1020.0 mb 0.00 in0.0 mm 0.00 in0.0 mm 0.00 in0.0 mm
01:07 AM 59.4°F15.2°C 58.2°F14.6°C 96% 2.2 mph SW3.5 kmh SW 4.0 mph6.4 kmh 30.12 in1020.0 mb 0.00 in0.0 mm 0.00 in0.0 mm 0.00 in0.0 mm
01:12 AM 59.4°F15.2°C 58.2°F14.6°C 96% 2.5 mph SW4.0 kmh SW 4.0 mph6.4 kmh 30.12 in1020.0 mb 0.00 in0.0 mm 0.00 in0.0 mm 0.00 in0.0 mm
01:17 AM 59.4°F15.2°C 58.2°F14.6°C 96% 2.4 mph SW3.9 kmh SW 6.0 mph9.7 kmh 30.11 in1019.6 mb 0.00 in0.0 mm 0.00 in0.0 mm 0.00 in0.0 mm
01:22 AM 59.3°F15.2°C 58.1°F14.5°C 96% 1.4 mph SW2.3 kmh SW 6.0 mph9.7 kmh 30.11 in1019.6 mb 0.00 in0.0 mm 0.00 in0.0 mm 0.00 in0.0 mm
01:27 AM 59.3°F15.2°C 58.1°F14.5°C 96% 1.9 mph SW3.1 kmh SW 6.0 mph9.7 kmh 30.11 in1019.6 mb 0.00 in0.0 mm 0.00 in0.0 mm 0.00 in0.0 mm
01:32 AM 59.3°F15.2°C 58.1°F14.5°C 96% 1.4 mph SW2.3 kmh SW 6.0 mph9.7 kmh 30.11 in1019.6 mb 0.00 in0.0 mm 0.00 in0.0 mm 0.00 in0.0 mm
01:37 AM 59.3°F15.2°C 58.1°F14.5°C 96% 2.3 mph SW3.7 kmh SW 4.0 mph6.4 kmh 30.11 in1019.6 mb 0.00 in0.0 mm 0.00 in0.0 mm 0.00 in0.0 mm
01:42 AM 59.4°F15.2°C 58.5°F14.7°C 97% 2.1 mph SW3.4 kmh SW 4.0 mph6.4 kmh 30.11 in1019.6 mb 0.00 in0.0 mm 0.00 in0.0 mm 0.00 in0.0 mm
01:47 AM 59.4°F15.2°C 58.5°F14.7°C 97% 2.6 mph SW4.2 kmh SW 4.0 mph6.4 kmh 30.12 in1020.0 mb 0.00 in0.0 mm 0.00 in0.0 mm 0.00 in0.0 mm
01:52 AM 59.4°F15.2°C 58.2°F14.6°C 96% 2.0 mph SW3.2 kmh SW 5.0 mph8.0 kmh 30.11 in1019.6 mb 0.00 in0.0 mm 0.00 in0.0 mm 0.00 in0.0 mm
01:57 AM 59.5°F15.3°C 58.3°F14.6°C 96% 1.7 mph SW2.7 kmh SW 5.0 mph8.0 kmh 30.12 in1020.0 mb 0.00 in0.0 mm 0.00 in0.0 mm 0.00 in0.0 mm
02:02 AM 59.5°F15.3°C 58.3°F14.6°C 96% 1.4 mph SW2.3 kmh SW 5.0 mph8.0 kmh 30.12 in1020.0 mb 0.00 in0.0 mm 0.00 in0.0 mm 0.00 in0.0 mm
02:07 AM 59.5°F15.3°C 58.3°F14.6°C 96% 1.7 mph SW2.7 kmh SW 5.0 mph8.0 kmh 30.12 in1020.0 mb 0.00 in0.0 mm 0.00 in0.0 mm 0.00 in0.0 mm
02:12 AM 59.6°F15.3°C 58.4°F14.7°C 96% 2.2 mph SW3.5 kmh SW 5.0 mph8.0 kmh 30.12 in1020.0 mb 0.00 in0.0 mm 0.00 in0.0 mm 0.00 in0.0 mm
02:17 AM 59.6°F15.3°C 58.4°F14.7°C 96% 2.0 mph SW3.2 kmh SW 4.0 mph6.4 kmh 30.11 in1019.6 mb 0.00 in0.0 mm 0.00 in0.0 mm 0.00 in0.0 mm
02:22 AM 59.7°F15.4°C 58.6°F14.8°C 96% 2.2 mph SW3.5 kmh SW 5.0 mph8.0 kmh 30.11 in1019.6 mb 0.00 in0.0 mm 0.00 in0.0 mm 0.00 in0.0 mm
02:27 AM 59.7°F15.4°C 58.6°F14.8°C 96% 3.3 mph SW5.3 kmh SW 5.0 mph8.0 kmh 30.11 in1019.6 mb 0.00 in0.0 mm 0.00 in0.0 mm 0.00 in0.0 mm
02:32 AM 59.6°F15.3°C 58.4°F14.7°C 96% 2.5 mph SW4.0 kmh SW 6.0 mph9.7 kmh 30.11 in1019.6 mb 0.00 in0.0 mm 0.00 in0.0 mm 0.00 in0.0 mm
02:37 AM 59.6°F15.3°C 58.4°F14.7°C 96% 2.7 mph SW4.3 kmh SW 6.0 mph9.7 kmh 30.11 in1019.6 mb 0.00 in0.0 mm 0.00 in0.0 mm 0.00 in0.0 mm
02:42 AM 59.4°F15.2°C 58.2°F14.6°C 96% 2.1 mph SW3.4 kmh SW 6.0 mph9.7 kmh 30.11 in1019.6 mb 0.00 in0.0 mm 0.00 in0.0 mm 0.00 in0.0 mm
02:47 AM 59.3°F15.2°C 58.1°F14.5°C 96% 2.6 mph SW4.2 kmh SW 6.0 mph9.7 kmh 30.11 in1019.6 mb 0.00 in0.0 mm 0.00 in0.0 mm 0.00 in0.0 mm
02:52 AM 59.2°F15.1°C 58.0°F14.4°C 96% 1.7 mph SW2.7 kmh SW 5.0 mph8.0 kmh 30.11 in1019.6 mb 0.00 in0.0 mm 0.00 in0.0 mm 0.00 in0.0 mm
02:57 AM 59.1°F15.1°C 57.9°F14.4°C 96% 1.7 mph SW2.7 kmh SW 5.0 mph8.0 kmh 30.11 in1019.6 mb 0.00 in0.0 mm 0.00 in0.0 mm 0.00 in0.0 mm
03:02 AM 59.0°F15.0°C 58.1°F14.5°C 97% 2.1 mph SW3.4 kmh SW 5.0 mph8.0 kmh 30.11 in1019.6 mb 0.00 in0.0 mm 0.00 in0.0 mm 0.00 in0.0 mm
03:07 AM 58.9°F14.9°C 58.0°F14.4°C 97% 1.7 mph SW2.7 kmh SW 4.0 mph6.4 kmh 30.11 in1019.6 mb 0.00 in0.0 mm 0.00 in0.0 mm 0.00 in0.0 mm
03:12 AM 58.8°F14.9°C 57.9°F14.4°C 97% 1.6 mph SW2.6 kmh SW 4.0 mph6.4 kmh 30.11 in1019.6 mb 0.00 in0.0 mm 0.00 in0.0 mm 0.00 in0.0 mm
03:17 AM 58.7°F14.8°C 57.8°F14.3°C 97% 2.2 mph SW3.5 kmh SW 4.0 mph6.4 kmh 30.11 in1019.6 mb 0.00 in0.0 mm 0.00 in0.0 mm 0.00 in0.0 mm
03:22 AM 58.6°F14.8°C 57.7°F14.3°C 97% 2.5 mph SW4.0 kmh SW 4.0 mph6.4 kmh 30.11 in1019.6 mb 0.00 in0.0 mm 0.00 in0.0 mm 0.00 in0.0 mm
03:27 AM 58.6°F14.8°C 57.7°F14.3°C 97% 2.3 mph SW3.7 kmh SW 4.0 mph6.4 kmh 30.11 in1019.6 mb 0.00 in0.0 mm 0.00 in0.0 mm 0.00 in0.0 mm
03:32 AM 58.5°F14.7°C 57.6°F14.2°C 97% 2.4 mph SW3.9 kmh SW 6.0 mph9.7 kmh 30.12 in1020.0 mb 0.00 in0.0 mm 0.00 in0.0 mm 0.00 in0.0 mm
03:37 AM 58.4°F14.7°C 57.5°F14.2°C 97% 2.4 mph SW3.9 kmh SW 6.0 mph9.7 kmh 30.12 in1020.0 mb 0.00 in0.0 mm 0.00 in0.0 mm 0.00 in0.0 mm
03:42 AM 58.4°F14.7°C 57.5°F14.2°C 97% 2.2 mph SW3.5 kmh SW 6.0 mph9.7 kmh 30.12 in1020.0 mb 0.00 in0.0 mm 0.00 in0.0 mm 0.00 in0.0 mm
03:47 AM 58.3°F14.6°C 57.4°F14.1°C 97% 1.8 mph SW2.9 kmh SW 6.0 mph9.7 kmh 30.12 in1020.0 mb 0.00 in0.0 mm 0.00 in0.0 mm 0.00 in0.0 mm
03:52 AM 58.3°F14.6°C 57.4°F14.1°C 97% 2.3 mph SW3.7 kmh SW 5.0 mph8.0 kmh 30.12 in1020.0 mb 0.00 in0.0 mm 0.00 in0.0 mm 0.00 in0.0 mm
03:57 AM 58.2°F14.6°C 57.4°F14.1°C 97% 2.6 mph SSW4.2 kmh SSW 5.0 mph8.0 kmh 30.12 in1020.0 mb 0.00 in0.0 mm 0.00 in0.0 mm 0.00 in0.0 mm
04:01 AM 58.2°F14.6°C 57.4°F14.1°C 97% 2.9 mph SW4.7 kmh SW 7.0 mph11.3 kmh 30.11 in1019.6 mb 0.00 in0.0 mm 0.00 in0.0 mm 0.00 in0.0 mm
04:06 AM 58.1°F14.5°C 57.3°F14.1°C 97% 3.2 mph SW5.1 kmh SW 7.0 mph11.3 kmh 30.11 in1019.6 mb 0.00 in0.0 mm 0.00 in0.0 mm 0.00 in0.0 mm
04:11 AM 57.9°F14.4°C 57.0°F13.9°C 97% 2.3 mph SW3.7 kmh SW 7.0 mph11.3 kmh 30.11 in1019.6 mb 0.00 in0.0 mm 0.00 in0.0 mm 0.00 in0.0 mm
04:16 AM 57.8°F14.3°C 56.9°F13.8°C 97% 3.2 mph SW5.1 kmh SW 7.0 mph11.3 kmh 30.11 in1019.6 mb 0.01 in0.3 mm 0.12 in3.0 mm 0.01 in0.3 mm
04:21 AM 57.8°F14.3°C 56.9°F13.8°C 97% 2.6 mph SW4.2 kmh SW 7.0 mph11.3 kmh 30.11 in1019.6 mb 0.01 in0.3 mm 0.00 in0.0 mm 0.01 in0.3 mm
04:26 AM 57.8°F14.3°C 56.9°F13.8°C 97% 2.8 mph SW4.5 kmh SW 7.0 mph11.3 kmh 30.11 in1019.6 mb 0.01 in0.3 mm 0.00 in0.0 mm 0.01 in0.3 mm
04:31 AM 57.8°F14.3°C 56.9°F13.8°C 97% 3.2 mph SW5.1 kmh SW 7.0 mph11.3 kmh 30.11 in1019.6 mb 0.01 in0.3 mm 0.00 in0.0 mm 0.01 in0.3 mm
04:36 AM 57.8°F14.3°C 57.2°F14.0°C 98% 2.1 mph SW3.4 kmh SW 6.0 mph9.7 kmh 30.11 in1019.6 mb 0.01 in0.3 mm 0.00 in0.0 mm 0.01 in0.3 mm
04:41 AM 57.7°F14.3°C 57.1°F13.9°C 98% 2.4 mph SW3.9 kmh SW 6.0 mph9.7 kmh 30.11 in1019.6 mb 0.01 in0.3 mm 0.00 in0.0 mm 0.01 in0.3 mm
04:46 AM 57.8°F14.3°C 57.2°F14.0°C 98% 2.6 mph SW4.2 kmh SW 6.0 mph9.7 kmh 30.12 in1020.0 mb 0.01 in0.3 mm 0.00 in0.0 mm 0.01 in0.3 mm
04:51 AM 57.9°F14.4°C 57.3°F14.1°C 98% 2.2 mph SW3.5 kmh SW 6.0 mph9.7 kmh 30.12 in1020.0 mb 0.01 in0.3 mm 0.00 in0.0 mm 0.01 in0.3 mm
04:56 AM 58.1°F14.5°C 57.5°F14.2°C 98% 2.7 mph SW4.3 kmh SW 6.0 mph9.7 kmh 30.12 in1020.0 mb 0.01 in0.3 mm 0.00 in0.0 mm 0.01 in0.3 mm
05:01 AM 58.1°F14.5°C 57.5°F14.2°C 98% 2.2 mph SW3.5 kmh SW 6.0 mph9.7 kmh 30.11 in1019.6 mb 0.01 in0.3 mm 0.00 in0.0 mm 0.01 in0.3 mm
05:06 AM 58.1°F14.5°C 57.5°F14.2°C 98% 3.0 mph SW4.8 kmh SW 6.0 mph9.7 kmh 30.11 in1019.6 mb 0.01 in0.3 mm 0.00 in0.0 mm 0.01 in0.3 mm
05:11 AM 58.2°F14.6°C 57.6°F14.2°C 98% 2.1 mph SW3.4 kmh SW 5.0 mph8.0 kmh 30.12 in1020.0 mb 0.01 in0.3 mm 0.00 in0.0 mm 0.01 in0.3 mm
05:16 AM 58.2°F14.6°C 57.6°F14.2°C 98% 2.3 mph SW3.7 kmh SW 6.0 mph9.7 kmh 30.12 in1020.0 mb 0.00 in0.0 mm 0.00 in0.0 mm 0.01 in0.3 mm
05:21 AM 58.2°F14.6°C 57.6°F14.2°C 98% 2.6 mph SW4.2 kmh SW 6.0 mph9.7 kmh 30.12 in1020.0 mb 0.00 in0.0 mm 0.00 in0.0 mm 0.01 in0.3 mm
05:26 AM 58.3°F14.6°C 57.7°F14.3°C 98% 3.0 mph SW4.8 kmh SW 6.0 mph9.7 kmh 30.12 in1020.0 mb 0.00 in0.0 mm 0.00 in0.0 mm 0.01 in0.3 mm
05:31 AM 58.3°F14.6°C 57.7°F14.3°C 98% 2.8 mph SW4.5 kmh SW 6.0 mph9.7 kmh 30.12 in1020.0 mb 0.00 in0.0 mm 0.00 in0.0 mm 0.01 in0.3 mm
05:36 AM 58.3°F14.6°C 57.7°F14.3°C 98% 3.2 mph SW5.1 kmh SW 6.0 mph9.7 kmh 30.12 in1020.0 mb 0.00 in0.0 mm 0.00 in0.0 mm 0.01 in0.3 mm
05:41 AM 58.3°F14.6°C 57.7°F14.3°C 98% 2.2 mph SW3.5 kmh SW 6.0 mph9.7 kmh 30.12 in1020.0 mb 0.00 in0.0 mm 0.00 in0.0 mm 0.01 in0.3 mm
05:47 AM 58.2°F14.6°C 57.4°F14.1°C 97% 2.1 mph SW3.4 kmh SW 6.0 mph9.7 kmh 30.12 in1020.0 mb 0.00 in0.0 mm 0.00 in0.0 mm 0.01 in0.3 mm
05:52 AM 58.0°F14.4°C 57.2°F14.0°C 97% 2.4 mph SW3.9 kmh SW 6.0 mph9.7 kmh 30.12 in1020.0 mb 0.00 in0.0 mm 0.00 in0.0 mm 0.01 in0.3 mm
05:56 AM 58.0°F14.4°C 57.2°F14.0°C 97% 2.4 mph SW3.9 kmh SW 5.0 mph8.0 kmh 30.12 in1020.0 mb 0.00 in0.0 mm 0.00 in0.0 mm 0.01 in0.3 mm
06:01 AM 57.9°F14.4°C 57.1°F13.9°C 97% 2.7 mph SW4.3 kmh SW 6.0 mph9.7 kmh 30.12 in1020.0 mb 0.00 in0.0 mm 0.00 in0.0 mm 0.01 in0.3 mm
06:07 AM 57.9°F14.4°C 57.1°F13.9°C 97% 3.0 mph SW4.8 kmh SW 6.0 mph9.7 kmh 30.12 in1020.0 mb 0.00 in0.0 mm 0.00 in0.0 mm 0.01 in0.3 mm
06:12 AM 58.0°F14.4°C 57.4°F14.1°C 98% 3.0 mph SW4.8 kmh SW 6.0 mph9.7 kmh 30.13 in1020.3 mb 0.00 in0.0 mm 0.00 in0.0 mm 0.01 in0.3 mm
06:17 AM 58.0°F14.4°C 57.4°F14.1°C 98% 2.6 mph SW4.2 kmh SW 6.0 mph9.7 kmh 30.13 in1020.3 mb 0.00 in0.0 mm 0.00 in0.0 mm 0.01 in0.3 mm
06:21 AM 58.0°F14.4°C 57.4°F14.1°C 98% 2.0 mph SW3.2 kmh SW 6.0 mph9.7 kmh 30.12 in1020.0 mb 0.00 in0.0 mm 0.00 in0.0 mm 0.01 in0.3 mm
06:26 AM 58.0°F14.4°C 57.4°F14.1°C 98% 2.2 mph SW3.5 kmh SW 6.0 mph9.7 kmh 30.13 in1020.3 mb 0.00 in0.0 mm 0.00 in0.0 mm 0.01 in0.3 mm
06:32 AM 58.0°F14.4°C 57.4°F14.1°C 98% 2.2 mph SW3.5 kmh SW 6.0 mph9.7 kmh 30.12 in1020.0 mb 0.00 in0.0 mm 0.00 in0.0 mm 0.01 in0.3 mm
06:37 AM 58.0°F14.4°C 57.4°F14.1°C 98% 2.2 mph SW3.5 kmh SW 6.0 mph9.7 kmh 30.13 in1020.3 mb 0.00 in0.0 mm 0.00 in0.0 mm 0.01 in0.3 mm
06:42 AM 58.0°F14.4°C 57.4°F14.1°C 98% 2.1 mph SW3.4 kmh SW 5.0 mph8.0 kmh 30.12 in1020.0 mb 0.00 in0.0 mm 0.00 in0.0 mm 0.01 in0.3 mm
06:47 AM 57.9°F14.4°C 57.3°F14.1°C 98% 2.2 mph SW3.5 kmh SW 5.0 mph8.0 kmh 30.12 in1020.0 mb 0.00 in0.0 mm 0.00 in0.0 mm 0.01 in0.3 mm
06:52 AM 57.9°F14.4°C 57.3°F14.1°C 98% 2.7 mph SW4.3 kmh SW 5.0 mph8.0 kmh 30.12 in1020.0 mb 0.00 in0.0 mm 0.00 in0.0 mm 0.01 in0.3 mm
06:57 AM 57.9°F14.4°C 57.3°F14.1°C 98% 2.5 mph SW4.0 kmh SW 5.0 mph8.0 kmh 30.13 in1020.3 mb 0.00 in0.0 mm 0.00 in0.0 mm 0.01 in0.3 mm
07:02 AM 57.9°F14.4°C 57.3°F14.1°C 98% 2.8 mph SW4.5 kmh SW 5.0 mph8.0 kmh 30.13 in1020.3 mb 0.00 in0.0 mm 0.00 in0.0 mm 0.01 in0.3 mm
07:07 AM 58.0°F14.4°C 57.4°F14.1°C 98% 2.5 mph SW4.0 kmh SW 5.0 mph8.0 kmh 30.13 in1020.3 mb 0.00 in0.0 mm 0.00 in0.0 mm 0.01 in0.3 mm
07:12 AM 57.9°F14.4°C 57.3°F14.1°C 98% 2.7 mph SW4.3 kmh SW 6.0 mph9.7 kmh 30.13 in1020.3 mb 0.00 in0.0 mm 0.00 in0.0 mm 0.01 in0.3 mm
07:17 AM 57.8°F14.3°C 57.2°F14.0°C 98% 3.8 mph SW6.1 kmh SW 6.0 mph9.7 kmh 30.13 in1020.3 mb 0.00 in0.0 mm 0.00 in0.0 mm 0.01 in0.3 mm
07:22 AM 57.8°F14.3°C 57.2°F14.0°C 98% 2.3 mph SW3.7 kmh SW 6.0 mph9.7 kmh 30.13 in1020.3 mb 0.00 in0.0 mm 0.00 in0.0 mm 0.01 in0.3 mm
07:27 AM 57.7°F14.3°C 57.1°F13.9°C 98% 2.4 mph SW3.9 kmh SW 6.0 mph9.7 kmh 30.13 in1020.3 mb 0.00 in0.0 mm 0.00 in0.0 mm 0.01 in0.3 mm
07:32 AM 57.7°F14.3°C 57.1°F13.9°C 98% 2.0 mph SSW3.2 kmh SSW 6.0 mph9.7 kmh 30.13 in1020.3 mb 0.00 in0.0 mm 0.00 in0.0 mm 0.01 in0.3 mm
07:37 AM 57.7°F14.3°C 57.1°F13.9°C 98% 2.2 mph SSW3.5 kmh SSW 5.0 mph8.0 kmh 30.13 in1020.3 mb 0.00 in0.0 mm 0.00 in0.0 mm 0.01 in0.3 mm
07:42 AM 57.8°F14.3°C 57.2°F14.0°C 98% 2.7 mph SW4.3 kmh SW 5.0 mph8.0 kmh 30.12 in1020.0 mb 0.00 in0.0 mm 0.00 in0.0 mm 0.01 in0.3 mm
07:47 AM 57.9°F14.4°C 57.3°F14.1°C 98% 2.3 mph SW3.7 kmh SW 5.0 mph8.0 kmh 30.13 in1020.3 mb 0.00 in0.0 mm 0.00 in0.0 mm 0.01 in0.3 mm
07:52 AM 57.9°F14.4°C 57.3°F14.1°C 98% 2.5 mph SW4.0 kmh SW 5.0 mph8.0 kmh 30.13 in1020.3 mb 0.00 in0.0 mm 0.00 in0.0 mm 0.01 in0.3 mm
07:57 AM 58.1°F14.5°C 57.5°F14.2°C 98% 2.8 mph SW4.5 kmh SW 5.0 mph8.0 kmh 30.13 in1020.3 mb 0.00 in0.0 mm 0.00 in0.0 mm 0.01 in0.3 mm
08:02 AM 58.2°F14.6°C 57.6°F14.2°C 98% 2.5 mph SW4.0 kmh SW 6.0 mph9.7 kmh 30.14 in1020.7 mb 0.00 in0.0 mm 0.00 in0.0 mm 0.01 in0.3 mm
08:07 AM 58.3°F14.6°C 57.7°F14.3°C 98% 2.4 mph SW3.9 kmh SW 6.0 mph9.7 kmh 30.14 in1020.7 mb 0.00 in0.0 mm 0.00 in0.0 mm 0.01 in0.3 mm
08:12 AM 58.4°F14.7°C 57.8°F14.3°C 98% 2.5 mph SW4.0 kmh SW 6.0 mph9.7 kmh 30.14 in1020.7 mb 0.00 in0.0 mm 0.00 in0.0 mm 0.01 in0.3 mm
08:17 AM 58.5°F14.7°C 57.9°F14.4°C 98% 2.1 mph SSW3.4 kmh SSW 6.0 mph9.7 kmh 30.14 in1020.7 mb 0.00 in0.0 mm 0.00 in0.0 mm 0.01 in0.3 mm
08:22 AM 58.6°F14.8°C 58.0°F14.4°C 98% 1.4 mph SW2.3 kmh SW 5.0 mph8.0 kmh 30.14 in1020.7 mb 0.00 in0.0 mm 0.00 in0.0 mm 0.01 in0.3 mm
08:27 AM 58.6°F14.8°C 58.0°F14.4°C 98% 2.7 mph SW4.3 kmh SW 5.0 mph8.0 kmh 30.14 in1020.7 mb 0.00 in0.0 mm 0.00 in0.0 mm 0.01 in0.3 mm
08:32 AM 58.5°F14.7°C 57.9°F14.4°C 98% 2.9 mph SW4.7 kmh SW 4.0 mph6.4 kmh 30.14 in1020.7 mb 0.00 in0.0 mm 0.00 in0.0 mm 0.01 in0.3 mm
08:37 AM 58.5°F14.7°C 57.9°F14.4°C 98% 2.8 mph SW4.5 kmh SW 5.0 mph8.0 kmh 30.14 in1020.7 mb 0.00 in0.0 mm 0.00 in0.0 mm 0.01 in0.3 mm
08:42 AM 58.4°F14.7°C 57.8°F14.3°C 98% 2.7 mph SW4.3 kmh SW 5.0 mph8.0 kmh 30.14 in1020.7 mb 0.00 in0.0 mm 0.00 in0.0 mm 0.01 in0.3 mm
08:47 AM 58.6°F14.8°C 58.0°F14.4°C 98% 3.5 mph SW5.6 kmh SW 5.0 mph8.0 kmh 30.14 in1020.7 mb 0.00 in0.0 mm 0.00 in0.0 mm 0.01 in0.3 mm
08:52 AM 58.6°F14.8°C 58.0°F14.4°C 98% 2.8 mph SW4.5 kmh SW 5.0 mph8.0 kmh 30.14 in1020.7 mb 0.00 in0.0 mm 0.00 in0.0 mm 0.01 in0.3 mm
08:57 AM 58.7°F14.8°C 58.1°F14.5°C 98% 2.9 mph SW4.7 kmh SW 6.0 mph9.7 kmh 30.14 in1020.7 mb 0.00 in0.0 mm 0.00 in0.0 mm 0.01 in0.3 mm
09:01 AM 58.8°F14.9°C 58.2°F14.6°C 98% 1.9 mph SW3.1 kmh SW 6.0 mph9.7 kmh 30.14 in1020.7 mb 0.00 in0.0 mm 0.00 in0.0 mm 0.01 in0.3 mm
09:06 AM 58.9°F14.9°C 58.3°F14.6°C 98% 3.2 mph SW5.1 kmh SW 6.0 mph9.7 kmh 30.15 in1021.0 mb 0.00 in0.0 mm 0.00 in0.0 mm 0.01 in0.3 mm
09:11 AM 59.1°F15.1°C 58.5°F14.7°C 98% 3.3 mph SW5.3 kmh SW 6.0 mph9.7 kmh 30.15 in1021.0 mb 0.00 in0.0 mm 0.00 in0.0 mm 0.01 in0.3 mm
09:16 AM 59.3°F15.2°C 58.7°F14.8°C 98% 2.4 mph SW3.9 kmh SW 6.0 mph9.7 kmh 30.15 in1021.0 mb 0.00 in0.0 mm 0.00 in0.0 mm 0.01 in0.3 mm
09:21 AM 59.5°F15.3°C 58.9°F14.9°C 98% 2.5 mph SW4.0 kmh SW 6.0 mph9.7 kmh 30.15 in1021.0 mb 0.00 in0.0 mm 0.00 in0.0 mm 0.01 in0.3 mm
09:26 AM 59.7°F15.4°C 59.1°F15.1°C 98% 2.8 mph SW4.5 kmh SW 6.0 mph9.7 kmh 30.14 in1020.7 mb 0.00 in0.0 mm 0.00 in0.0 mm 0.01 in0.3 mm
09:31 AM 59.9°F15.5°C 59.3°F15.2°C 98% 2.6 mph SW4.2 kmh SW 6.0 mph9.7 kmh 30.14 in1020.7 mb 0.00 in0.0 mm 0.00 in0.0 mm 0.01 in0.3 mm
09:36 AM 60.3°F15.7°C 59.7°F15.4°C 98% 3.3 mph SW5.3 kmh SW 6.0 mph9.7 kmh 30.14 in1020.7 mb 0.00 in0.0 mm 0.00 in0.0 mm 0.01 in0.3 mm
09:41 AM 60.5°F15.8°C 59.9°F15.5°C 98% 1.4 mph SW2.3 kmh SW 6.0 mph9.7 kmh 30.14 in1020.7 mb 0.00 in0.0 mm 0.00 in0.0 mm 0.01 in0.3 mm
09:46 AM 60.7°F15.9°C 60.1°F15.6°C 98% 2.2 mph SW3.5 kmh SW 6.0 mph9.7 kmh 30.14 in1020.7 mb 0.00 in0.0 mm 0.00 in0.0 mm 0.01 in0.3 mm
09:51 AM 60.9°F16.1°C 60.3°F15.7°C 98% 2.1 mph SW3.4 kmh SW 6.0 mph9.7 kmh 30.15 in1021.0 mb 0.00 in0.0 mm 0.00 in0.0 mm 0.01 in0.3 mm
09:56 AM 61.0°F16.1°C 60.4°F15.8°C 98% 2.5 mph SW4.0 kmh SW 6.0 mph9.7 kmh 30.15 in1021.0 mb 0.00 in0.0 mm 0.00 in0.0 mm 0.01 in0.3 mm
10:01 AM 61.2°F16.2°C 60.6°F15.9°C 98% 3.6 mph SW5.8 kmh SW 6.0 mph9.7 kmh 30.15 in1021.0 mb 0.00 in0.0 mm 0.00 in0.0 mm 0.01 in0.3 mm
10:06 AM 61.4°F16.3°C 60.8°F16.0°C 98% 1.8 mph SW2.9 kmh SW 6.0 mph9.7 kmh 30.15 in1021.0 mb 0.00 in0.0 mm 0.00 in0.0 mm 0.01 in0.3 mm
10:11 AM 61.6°F16.4°C 61.0°F16.1°C 98% 2.4 mph WSW3.9 kmh WSW 6.0 mph9.7 kmh 30.15 in1021.0 mb 0.00 in0.0 mm 0.00 in0.0 mm 0.01 in0.3 mm
10:16 AM 61.8°F16.6°C 61.2°F16.2°C 98% 2.8 mph SW4.5 kmh SW 6.0 mph9.7 kmh 30.15 in1021.0 mb 0.00 in0.0 mm 0.00 in0.0 mm 0.01 in0.3 mm
10:21 AM 61.9°F16.6°C 61.3°F16.3°C 98% 2.8 mph SW4.5 kmh SW 6.0 mph9.7 kmh 30.15 in1021.0 mb 0.00 in0.0 mm 0.00 in0.0 mm 0.01 in0.3 mm
10:26 AM 62.1°F16.7°C 61.5°F16.4°C 98% 1.7 mph SW2.7 kmh SW 6.0 mph9.7 kmh 30.15 in1021.0 mb 0.00 in0.0 mm 0.00 in0.0 mm 0.01 in0.3 mm
10:31 AM 62.3°F16.8°C 61.7°F16.5°C 98% 1.7 mph SW2.7 kmh SW 6.0 mph9.7 kmh 30.15 in1021.0 mb 0.00 in0.0 mm 0.00 in0.0 mm 0.01 in0.3 mm
10:36 AM 62.5°F16.9°C 61.9°F16.6°C 98% 1.8 mph SW2.9 kmh SW 6.0 mph9.7 kmh 30.15 in1021.0 mb 0.00 in0.0 mm 0.00 in0.0 mm 0.01 in0.3 mm
10:41 AM 62.6°F17.0°C 62.0°F16.7°C 98% 3.0 mph SW4.8 kmh SW 6.0 mph9.7 kmh 30.16 in1021.3 mb 0.00 in0.0 mm 0.00 in0.0 mm 0.01 in0.3 mm
10:46 AM 62.8°F17.1°C 62.2°F16.8°C 98% 2.9 mph SW4.7 kmh SW 6.0 mph9.7 kmh 30.16 in1021.3 mb 0.00 in0.0 mm 0.00 in0.0 mm 0.01 in0.3 mm
10:51 AM 62.9°F17.2°C 62.3°F16.8°C 98% 1.9 mph WSW3.1 kmh WSW 7.0 mph11.3 kmh 30.16 in1021.3 mb 0.00 in0.0 mm 0.00 in0.0 mm 0.01 in0.3 mm
10:56 AM 63.2°F17.3°C 62.3°F16.8°C 97% 3.9 mph SW6.3 kmh SW 7.0 mph11.3 kmh 30.16 in1021.3 mb 0.00 in0.0 mm 0.00 in0.0 mm 0.01 in0.3 mm
11:01 AM 63.2°F17.3°C 62.3°F16.8°C 97% 4.1 mph SW6.6 kmh SW 8.0 mph12.9 kmh 30.16 in1021.3 mb 0.00 in0.0 mm 0.00 in0.0 mm 0.01 in0.3 mm
11:06 AM 63.3°F17.4°C 62.4°F16.9°C 97% 2.7 mph SW4.3 kmh SW 11.0 mph17.7 kmh 30.17 in1021.7 mb 0.00 in0.0 mm 0.00 in0.0 mm 0.01 in0.3 mm
11:11 AM 63.4°F17.4°C 62.5°F16.9°C 97% 5.9 mph SW9.5 kmh SW 11.0 mph17.7 kmh 30.16 in1021.3 mb 0.00 in0.0 mm 0.00 in0.0 mm 0.01 in0.3 mm
11:16 AM 63.5°F17.5°C 62.6°F17.0°C 97% 5.9 mph SW9.5 kmh SW 13.0 mph20.9 kmh 30.16 in1021.3 mb 0.00 in0.0 mm 0.00 in0.0 mm 0.01 in0.3 mm
11:21 AM 63.6°F17.6°C 62.7°F17.1°C 97% 6.1 mph SW9.8 kmh SW 13.0 mph20.9 kmh 30.17 in1021.7 mb 0.00 in0.0 mm 0.00 in0.0 mm 0.01 in0.3 mm
11:26 AM 63.9°F17.7°C 62.7°F17.1°C 96% 4.4 mph SW7.1 kmh SW 13.0 mph20.9 kmh 30.16 in1021.3 mb 0.00 in0.0 mm 0.00 in0.0 mm 0.01 in0.3 mm
11:31 AM 64.1°F17.8°C 62.9°F17.2°C 96% 4.1 mph SW6.6 kmh SW 13.0 mph20.9 kmh 30.16 in1021.3 mb 0.00 in0.0 mm 0.00 in0.0 mm 0.01 in0.3 mm
11:36 AM 64.2°F17.9°C 62.7°F17.1°C 95% 6.6 mph SW10.6 kmh SW 13.0 mph20.9 kmh 30.17 in1021.7 mb 0.00 in0.0 mm 0.00 in0.0 mm 0.01 in0.3 mm
11:41 AM 64.3°F17.9°C 62.8°F17.1°C 95% 6.9 mph WSW11.1 kmh WSW 13.0 mph20.9 kmh 30.17 in1021.7 mb 0.00 in0.0 mm 0.00 in0.0 mm 0.01 in0.3 mm
11:46 AM 64.5°F18.1°C 63.0°F17.2°C 95% 5.3 mph WSW8.5 kmh WSW 12.0 mph19.3 kmh 30.17 in1021.7 mb 0.00 in0.0 mm 0.00 in0.0 mm 0.01 in0.3 mm
11:51 AM 64.5°F18.1°C 62.7°F17.1°C 94% 3.0 mph WSW4.8 kmh WSW 12.0 mph19.3 kmh 30.17 in1021.7 mb 0.00 in0.0 mm 0.00 in0.0 mm 0.01 in0.3 mm
11:56 AM 64.3°F17.9°C 62.8°F17.1°C 95% 6.8 mph SW10.9 kmh SW 14.0 mph22.5 kmh 30.17 in1021.7 mb 0.00 in0.0 mm 0.00 in0.0 mm 0.01 in0.3 mm
12:01 PM 64.2°F17.9°C 62.7°F17.1°C 95% 3.8 mph SW6.1 kmh SW 14.0 mph22.5 kmh 30.17 in1021.7 mb 0.00 in0.0 mm 0.00 in0.0 mm 0.01 in0.3 mm
12:06 PM 64.1°F17.8°C 62.6°F17.0°C 95% 3.4 mph SW5.5 kmh SW 14.0 mph22.5 kmh 30.17 in1021.7 mb 0.00 in0.0 mm 0.00 in0.0 mm 0.01 in0.3 mm
12:11 PM 64.1°F17.8°C 62.6°F17.0°C 95% 4.3 mph SW6.9 kmh SW 14.0 mph22.5 kmh 30.17 in1021.7 mb 0.00 in0.0 mm 0.00 in0.0 mm 0.01 in0.3 mm
12:16 PM 64.3°F17.9°C 62.8°F17.1°C 95% 3.6 mph SW5.8 kmh SW 11.0 mph17.7 kmh 30.17 in1021.7 mb 0.00 in0.0 mm 0.00 in0.0 mm 0.01 in0.3 mm
12:21 PM 64.4°F18.0°C 62.9°F17.2°C 95% 4.6 mph WSW7.4 kmh WSW 11.0 mph17.7 kmh 30.16 in1021.3 mb 0.00 in0.0 mm 0.00 in0.0 mm 0.01 in0.3 mm
12:26 PM 64.4°F18.0°C 62.9°F17.2°C 95% 5.3 mph SW8.5 kmh SW 10.0 mph16.1 kmh 30.16 in1021.3 mb 0.00 in0.0 mm 0.00 in0.0 mm 0.01 in0.3 mm
12:31 PM 64.5°F18.1°C 63.0°F17.2°C 95% 2.8 mph SW4.5 kmh SW 12.0 mph19.3 kmh 30.16 in1021.3 mb 0.00 in0.0 mm 0.00 in0.0 mm 0.01 in0.3 mm
12:36 PM 64.5°F18.1°C 63.0°F17.2°C 95% 4.0 mph SW6.4 kmh SW 12.0 mph19.3 kmh 30.16 in1021.3 mb 0.00 in0.0 mm 0.00 in0.0 mm 0.01 in0.3 mm
12:41 PM 64.7°F18.2°C 63.2°F17.3°C 95% 3.1 mph SW5.0 kmh SW 12.0 mph19.3 kmh 30.15 in1021.0 mb 0.00 in0.0 mm 0.00 in0.0 mm 0.01 in0.3 mm
12:46 PM 64.8°F18.2°C 63.0°F17.2°C 94% 3.1 mph SW5.0 kmh SW 12.0 mph19.3 kmh 30.15 in1021.0 mb 0.00 in0.0 mm 0.00 in0.0 mm 0.01 in0.3 mm
12:51 PM 64.8°F18.2°C 63.0°F17.2°C 94% 4.1 mph SW6.6 kmh SW 10.0 mph16.1 kmh 30.15 in1021.0 mb 0.00 in0.0 mm 0.00 in0.0 mm 0.01 in0.3 mm
12:56 PM 64.9°F18.3°C 63.1°F17.3°C 94% 2.8 mph SW4.5 kmh SW 10.0 mph16.1 kmh 30.15 in1021.0 mb 0.00 in0.0 mm 0.00 in0.0 mm 0.01 in0.3 mm
01:01 PM 65.1°F18.4°C 63.3°F17.4°C 94% 6.3 mph SW10.1 kmh SW 10.0 mph16.1 kmh 30.15 in1021.0 mb 0.00 in0.0 mm 0.00 in0.0 mm 0.01 in0.3 mm
01:06 PM 65.1°F18.4°C 63.3°F17.4°C 94% 3.6 mph SW5.8 kmh SW 10.0 mph16.1 kmh 30.15 in1021.0 mb 0.00 in0.0 mm 0.00 in0.0 mm 0.01 in0.3 mm
01:11 PM 65.1°F18.4°C 63.3°F17.4°C 94% 5.4 mph SW8.7 kmh SW 11.0 mph17.7 kmh 30.14 in1020.7 mb 0.00 in0.0 mm 0.00 in0.0 mm 0.01 in0.3 mm
01:16 PM 65.2°F18.4°C 63.4°F17.4°C 94% 3.6 mph SW5.8 kmh SW 11.0 mph17.7 kmh 30.14 in1020.7 mb 0.00 in0.0 mm 0.00 in0.0 mm 0.01 in0.3 mm
01:21 PM 65.4°F18.6°C 63.6°F17.6°C 94% 4.1 mph SW6.6 kmh SW 11.0 mph17.7 kmh 30.14 in1020.7 mb 0.00 in0.0 mm 0.00 in0.0 mm 0.01 in0.3 mm
01:26 PM 65.6°F18.7°C 63.8°F17.7°C 94% 2.5 mph SW4.0 kmh SW 11.0 mph17.7 kmh 30.14 in1020.7 mb 0.00 in0.0 mm 0.00 in0.0 mm 0.01 in0.3 mm
01:31 PM 65.8°F18.8°C 63.7°F17.6°C 93% 5.4 mph SW8.7 kmh SW 10.0 mph16.1 kmh 30.14 in1020.7 mb 0.00 in0.0 mm 0.00 in0.0 mm 0.01 in0.3 mm
01:36 PM 66.0°F18.9°C 63.9°F17.7°C 93% 3.2 mph SW5.1 kmh SW 12.0 mph19.3 kmh 30.14 in1020.7 mb 0.00 in0.0 mm 0.00 in0.0 mm 0.01 in0.3 mm
01:41 PM 66.3°F19.1°C 64.2°F17.9°C 93% 1.0 mph SW1.6 kmh SW 12.0 mph19.3 kmh 30.14 in1020.7 mb 0.00 in0.0 mm 0.00 in0.0 mm 0.01 in0.3 mm
01:46 PM 66.4°F19.1°C 64.0°F17.8°C 92% 3.8 mph SW6.1 kmh SW 12.0 mph19.3 kmh 30.14 in1020.7 mb 0.00 in0.0 mm 0.00 in0.0 mm 0.01 in0.3 mm
01:51 PM 66.4°F19.1°C 64.0°F17.8°C 92% 5.5 mph SW8.9 kmh SW 9.0 mph14.5 kmh 30.13 in1020.3 mb 0.00 in0.0 mm 0.00 in0.0 mm 0.01 in0.3 mm
01:56 PM 66.6°F19.2°C 64.2°F17.9°C 92% 2.0 mph SW3.2 kmh SW 9.0 mph14.5 kmh 30.13 in1020.3 mb 0.00 in0.0 mm 0.00 in0.0 mm 0.01 in0.3 mm
02:00 PM 66.6°F19.2°C 64.2°F17.9°C 92% 3.7 mph SSW6.0 kmh SSW 9.0 mph14.5 kmh 30.13 in1020.3 mb 0.00 in0.0 mm 0.00 in0.0 mm 0.01 in0.3 mm
02:05 PM 66.6°F19.2°C 64.2°F17.9°C 92% 3.4 mph SW5.5 kmh SW 11.0 mph17.7 kmh 30.13 in1020.3 mb 0.00 in0.0 mm 0.00 in0.0 mm 0.01 in0.3 mm
02:10 PM 66.7°F19.3°C 64.3°F17.9°C 92% 6.4 mph SW10.3 kmh SW 12.0 mph19.3 kmh 30.13 in1020.3 mb 0.00 in0.0 mm 0.00 in0.0 mm 0.01 in0.3 mm
02:15 PM 67.1°F19.5°C 64.4°F18.0°C 91% 2.7 mph SW4.3 kmh SW 12.0 mph19.3 kmh 30.13 in1020.3 mb 0.00 in0.0 mm 0.00 in0.0 mm 0.01 in0.3 mm
02:20 PM 67.6°F19.8°C 64.5°F18.1°C 90% 6.2 mph SW10.0 kmh SW 12.0 mph19.3 kmh 30.13 in1020.3 mb 0.00 in0.0 mm 0.00 in0.0 mm 0.01 in0.3 mm
02:25 PM 67.7°F19.8°C 64.6°F18.1°C 90% 2.9 mph SW4.7 kmh SW 12.0 mph19.3 kmh 30.12 in1020.0 mb 0.00 in0.0 mm 0.00 in0.0 mm 0.01 in0.3 mm
02:30 PM 68.0°F20.0°C 64.6°F18.1°C 89% 2.2 mph SW3.5 kmh SW 10.0 mph16.1 kmh 30.12 in1020.0 mb 0.00 in0.0 mm 0.00 in0.0 mm 0.01 in0.3 mm
02:35 PM 68.1°F20.1°C 64.7°F18.2°C 89% 3.6 mph SW5.8 kmh SW 10.0 mph16.1 kmh 30.12 in1020.0 mb 0.00 in0.0 mm 0.00 in0.0 mm 0.01 in0.3 mm
02:40 PM 68.3°F20.2°C 64.9°F18.3°C 89% 4.5 mph SW7.2 kmh SW 9.0 mph14.5 kmh 30.12 in1020.0 mb 0.00 in0.0 mm 0.00 in0.0 mm 0.01 in0.3 mm
02:45 PM 68.4°F20.2°C 64.7°F18.2°C 88% 4.3 mph SSW6.9 kmh SSW 9.0 mph14.5 kmh 30.11 in1019.6 mb 0.00 in0.0 mm 0.00 in0.0 mm 0.01 in0.3 mm
02:50 PM 68.5°F20.3°C 64.8°F18.2°C 88% 3.7 mph SW6.0 kmh SW 10.0 mph16.1 kmh 30.11 in1019.6 mb 0.00 in0.0 mm 0.00 in0.0 mm 0.01 in0.3 mm
02:55 PM 68.5°F20.3°C 64.8°F18.2°C 88% 7.3 mph SW11.7 kmh SW 13.0 mph20.9 kmh 30.11 in1019.6 mb 0.00 in0.0 mm 0.00 in0.0 mm 0.01 in0.3 mm
03:00 PM 68.7°F20.4°C 65.0°F18.3°C 88% 3.4 mph SSW5.5 kmh SSW 13.0 mph20.9 kmh 30.11 in1019.6 mb 0.00 in0.0 mm 0.00 in0.0 mm 0.01 in0.3 mm
03:05 PM 69.0°F20.6°C 65.3°F18.5°C 88% 1.0 mph WSW1.6 kmh WSW 13.0 mph20.9 kmh 30.11 in1019.6 mb 0.00 in0.0 mm 0.00 in0.0 mm 0.01 in0.3 mm
03:10 PM 69.0°F20.6°C 65.0°F18.3°C 87% 3.5 mph SSW5.6 kmh SSW 13.0 mph20.9 kmh 30.11 in1019.6 mb 0.00 in0.0 mm 0.00 in0.0 mm 0.01 in0.3 mm
03:15 PM 69.0°F20.6°C 64.7°F18.2°C 86% 6.8 mph SW10.9 kmh SW 12.0 mph19.3 kmh 30.11 in1019.6 mb 0.00 in0.0 mm 0.00 in0.0 mm 0.01 in0.3 mm
03:20 PM 68.9°F20.5°C 64.9°F18.3°C 87% 4.1 mph SW6.6 kmh SW 12.0 mph19.3 kmh 30.11 in1019.6 mb 0.00 in0.0 mm 0.00 in0.0 mm 0.01 in0.3 mm
03:25 PM 68.8°F20.4°C 64.8°F18.2°C 87% 5.8 mph SSW9.3 kmh SSW 12.0 mph19.3 kmh 30.11 in1019.6 mb 0.00 in0.0 mm 0.00 in0.0 mm 0.01 in0.3 mm
03:30 PM 68.4°F20.2°C 65.0°F18.3°C 89% 4.4 mph SW7.1 kmh SW 12.0 mph19.3 kmh 30.11 in1019.6 mb 0.00 in0.0 mm 0.00 in0.0 mm 0.01 in0.3 mm
03:35 PM 68.0°F20.0°C 64.9°F18.3°C 90% 4.3 mph SW6.9 kmh SW 11.0 mph17.7 kmh 30.11 in1019.6 mb 0.00 in0.0 mm 0.00 in0.0 mm 0.01 in0.3 mm
03:40 PM 67.8°F19.9°C 65.1°F18.4°C 91% 5.3 mph SW8.5 kmh SW 11.0 mph17.7 kmh 30.11 in1019.6 mb 0.00 in0.0 mm 0.00 in0.0 mm 0.01 in0.3 mm
03:45 PM 67.7°F19.8°C 65.0°F18.3°C 91% 5.8 mph SW9.3 kmh SW 11.0 mph17.7 kmh 30.11 in1019.6 mb 0.00 in0.0 mm 0.00 in0.0 mm 0.01 in0.3 mm
03:50 PM 67.8°F19.9°C 65.1°F18.4°C 91% 3.0 mph SW4.8 kmh SW 11.0 mph17.7 kmh 30.11 in1019.6 mb 0.00 in0.0 mm 0.00 in0.0 mm 0.01 in0.3 mm
03:55 PM 67.9°F19.9°C 65.2°F18.4°C 91% 3.1 mph SW5.0 kmh SW 11.0 mph17.7 kmh 30.11 in1019.6 mb 0.00 in0.0 mm 0.00 in0.0 mm 0.01 in0.3 mm
04:00 PM 68.0°F20.0°C 65.2°F18.4°C 91% 2.0 mph SW3.2 kmh SW 11.0 mph17.7 kmh 30.11 in1019.6 mb 0.00 in0.0 mm 0.00 in0.0 mm 0.01 in0.3 mm
04:05 PM 68.1°F20.1°C 65.0°F18.3°C 90% 4.9 mph SSW7.9 kmh SSW 10.0 mph16.1 kmh 30.11 in1019.6 mb 0.00 in0.0 mm 0.00 in0.0 mm 0.01 in0.3 mm
04:10 PM 68.3°F20.2°C 65.5°F18.6°C 91% 1.6 mph SW2.6 kmh SW 10.0 mph16.1 kmh 30.11 in1019.6 mb 0.00 in0.0 mm 0.00 in0.0 mm 0.01 in0.3 mm
04:15 PM 68.6°F20.3°C 65.5°F18.6°C 90% 5.8 mph SW9.3 kmh SW 10.0 mph16.1 kmh 30.11 in1019.6 mb 0.00 in0.0 mm 0.00 in0.0 mm 0.01 in0.3 mm
04:20 PM 68.8°F20.4°C 65.4°F18.6°C 89% 3.8 mph SW6.1 kmh SW 9.0 mph14.5 kmh 30.10 in1019.3 mb 0.00 in0.0 mm 0.00 in0.0 mm 0.01 in0.3 mm
04:25 PM 68.8°F20.4°C 65.1°F18.4°C 88% 3.6 mph SW5.8 kmh SW 9.0 mph14.5 kmh 30.10 in1019.3 mb 0.00 in0.0 mm 0.00 in0.0 mm 0.01 in0.3 mm
04:30 PM 68.8°F20.4°C 65.1°F18.4°C 88% 3.9 mph SW6.3 kmh SW 11.0 mph17.7 kmh 30.10 in1019.3 mb 0.00 in0.0 mm 0.00 in0.0 mm 0.01 in0.3 mm
04:35 PM 68.9°F20.5°C 65.2°F18.4°C 88% 4.0 mph WSW6.4 kmh WSW 11.0 mph17.7 kmh 30.10 in1019.3 mb 0.00 in0.0 mm 0.00 in0.0 mm 0.01 in0.3 mm
04:40 PM 69.0°F20.6°C 65.0°F18.3°C 87% 5.0 mph SW8.0 kmh SW 11.0 mph17.7 kmh 30.10 in1019.3 mb 0.00 in0.0 mm 0.00 in0.0 mm 0.01 in0.3 mm
04:45 PM 69.1°F20.6°C 65.1°F18.4°C 87% 6.4 mph SW10.3 kmh SW 12.0 mph19.3 kmh 30.10 in1019.3 mb 0.00 in0.0 mm 0.00 in0.0 mm 0.01 in0.3 mm
04:50 PM 69.1°F20.6°C 65.1°F18.4°C 87% 5.6 mph SW9.0 kmh SW 12.0 mph19.3 kmh 30.10 in1019.3 mb 0.00 in0.0 mm 0.00 in0.0 mm 0.01 in0.3 mm
04:55 PM 69.0°F20.6°C 65.0°F18.3°C 87% 4.5 mph SW7.2 kmh SW 12.0 mph19.3 kmh 30.10 in1019.3 mb 0.00 in0.0 mm 0.00 in0.0 mm 0.01 in0.3 mm
05:00 PM 68.9°F20.5°C 64.9°F18.3°C 87% 4.3 mph SSW6.9 kmh SSW 12.0 mph19.3 kmh 30.10 in1019.3 mb 0.00 in0.0 mm 0.00 in0.0 mm 0.01 in0.3 mm
05:05 PM 68.9°F20.5°C 64.9°F18.3°C 87% 3.2 mph SSW5.1 kmh SSW 10.0 mph16.1 kmh 30.10 in1019.3 mb 0.00 in0.0 mm 0.00 in0.0 mm 0.01 in0.3 mm
05:10 PM 68.8°F20.4°C 64.8°F18.2°C 87% 2.4 mph SW3.9 kmh SW 10.0 mph16.1 kmh 30.10 in1019.3 mb 0.00 in0.0 mm 0.00 in0.0 mm 0.01 in0.3 mm
05:15 PM 68.8°F20.4°C 64.8°F18.2°C 87% 2.1 mph SSW3.4 kmh SSW 10.0 mph16.1 kmh 30.10 in1019.3 mb 0.00 in0.0 mm 0.00 in0.0 mm 0.01 in0.3 mm
05:20 PM 68.7°F20.4°C 64.7°F18.2°C 87% 3.6 mph SW5.8 kmh SW 8.0 mph12.9 kmh 30.10 in1019.3 mb 0.00 in0.0 mm 0.00 in0.0 mm 0.01 in0.3 mm
05:25 PM 68.7°F20.4°C 65.0°F18.3°C 88% 1.8 mph SSW2.9 kmh SSW 9.0 mph14.5 kmh 30.10 in1019.3 mb 0.00 in0.0 mm 0.00 in0.0 mm 0.01 in0.3 mm
05:30 PM 68.6°F20.3°C 64.9°F18.3°C 88% 3.1 mph SW5.0 kmh SW 9.0 mph14.5 kmh 30.10 in1019.3 mb 0.00 in0.0 mm 0.00 in0.0 mm 0.01 in0.3 mm
05:35 PM 68.5°F20.3°C 64.8°F18.2°C 88% 2.7 mph SSW4.3 kmh SSW 9.0 mph14.5 kmh 30.10 in1019.3 mb 0.00 in0.0 mm 0.00 in0.0 mm 0.01 in0.3 mm
05:40 PM 68.5°F20.3°C 64.8°F18.2°C 88% 4.2 mph SW6.8 kmh SW 8.0 mph12.9 kmh 30.10 in1019.3 mb 0.00 in0.0 mm 0.00 in0.0 mm 0.01 in0.3 mm
05:45 PM 68.4°F20.2°C 64.7°F18.2°C 88% 2.5 mph SW4.0 kmh SW 9.0 mph14.5 kmh 30.09 in1019.0 mb 0.00 in0.0 mm 0.00 in0.0 mm 0.01 in0.3 mm
05:50 PM 68.3°F20.2°C 64.6°F18.1°C 88% 2.6 mph SW4.2 kmh SW 9.0 mph14.5 kmh 30.09 in1019.0 mb 0.00 in0.0 mm 0.00 in0.0 mm 0.01 in0.3 mm
05:55 PM 68.3°F20.2°C 64.9°F18.3°C 89% 2.8 mph SSW4.5 kmh SSW 9.0 mph14.5 kmh 30.09 in1019.0 mb 0.00 in0.0 mm 0.00 in0.0 mm 0.01 in0.3 mm
06:00 PM 68.2°F20.1°C 64.8°F18.2°C 89% 3.1 mph SSW5.0 kmh SSW 9.0 mph14.5 kmh 30.10 in1019.3 mb 0.00 in0.0 mm 0.00 in0.0 mm 0.01 in0.3 mm
06:05 PM 68.1°F20.1°C 64.7°F18.2°C 89% 2.5 mph SSW4.0 kmh SSW 7.0 mph11.3 kmh 30.09 in1019.0 mb 0.00 in0.0 mm 0.00 in0.0 mm 0.01 in0.3 mm
06:10 PM 68.0°F20.0°C 64.6°F18.1°C 89% 1.8 mph SW2.9 kmh SW 8.0 mph12.9 kmh 30.09 in1019.0 mb 0.00 in0.0 mm 0.00 in0.0 mm 0.01 in0.3 mm
06:15 PM 67.9°F19.9°C 64.9°F18.3°C 90% 2.2 mph SSW3.5 kmh SSW 8.0 mph12.9 kmh 30.09 in1019.0 mb 0.00 in0.0 mm 0.00 in0.0 mm 0.01 in0.3 mm
06:20 PM 67.8°F19.9°C 64.8°F18.2°C 90% 1.1 mph S1.8 kmh S 8.0 mph12.9 kmh 30.10 in1019.3 mb 0.00 in0.0 mm 0.00 in0.0 mm 0.01 in0.3 mm
06:25 PM 67.8°F19.9°C 64.8°F18.2°C 90% 2.3 mph SW3.7 kmh SW 8.0 mph12.9 kmh 30.09 in1019.0 mb 0.00 in0.0 mm 0.00 in0.0 mm 0.01 in0.3 mm
06:30 PM 67.7°F19.8°C 64.6°F18.1°C 90% 2.5 mph SSW4.0 kmh SSW 7.0 mph11.3 kmh 30.10 in1019.3 mb 0.00 in0.0 mm 0.00 in0.0 mm 0.01 in0.3 mm
06:35 PM 67.7°F19.8°C 64.6°F18.1°C 90% 1.0 mph S1.6 kmh S 7.0 mph11.3 kmh 30.10 in1019.3 mb 0.00 in0.0 mm 0.00 in0.0 mm 0.01 in0.3 mm
06:40 PM 67.6°F19.8°C 64.9°F18.3°C 91% 1.1 mph SSW1.8 kmh SSW 7.0 mph11.3 kmh 30.10 in1019.3 mb 0.00 in0.0 mm 0.00 in0.0 mm 0.01 in0.3 mm
06:45 PM 67.5°F19.7°C 64.8°F18.2°C 91% 1.3 mph S2.1 kmh S 4.0 mph6.4 kmh 30.10 in1019.3 mb 0.00 in0.0 mm 0.00 in0.0 mm 0.01 in0.3 mm
06:50 PM 67.4°F19.7°C 64.7°F18.2°C 91% 1.8 mph S2.9 kmh S 3.0 mph4.8 kmh 30.10 in1019.3 mb 0.00 in0.0 mm 0.00 in0.0 mm 0.01 in0.3 mm
06:55 PM 67.3°F19.6°C 64.6°F18.1°C 91% 1.0 mph S1.6 kmh S 3.0 mph4.8 kmh 30.10 in1019.3 mb 0.00 in0.0 mm 0.00 in0.0 mm 0.01 in0.3 mm
06:59 PM 67.3°F19.6°C 64.9°F18.3°C 92% 1.1 mph SSW1.8 kmh SSW 3.0 mph4.8 kmh 30.10 in1019.3 mb 0.00 in0.0 mm 0.00 in0.0 mm 0.01 in0.3 mm
07:04 PM 67.2°F19.6°C 64.8°F18.2°C 92% 1.1 mph SW1.8 kmh SW 3.0 mph4.8 kmh 30.10 in1019.3 mb 0.00 in0.0 mm 0.00 in0.0 mm 0.01 in0.3 mm
07:09 PM 67.1°F19.5°C 64.7°F18.2°C 92% 1.1 mph SSW1.8 kmh SSW 3.0 mph4.8 kmh 30.10 in1019.3 mb 0.00 in0.0 mm 0.00 in0.0 mm 0.01 in0.3 mm
07:14 PM 67.0°F19.4°C 64.6°F18.1°C 92% 1.0 mph SW1.6 kmh SW 3.0 mph4.8 kmh 30.10 in1019.3 mb 0.00 in0.0 mm 0.00 in0.0 mm 0.01 in0.3 mm
07:19 PM 67.0°F19.4°C 64.9°F18.3°C 93% 1.0 mph SW1.6 kmh SW 3.0 mph4.8 kmh 30.11 in1019.6 mb 0.00 in0.0 mm 0.00 in0.0 mm 0.01 in0.3 mm
07:24 PM 66.9°F19.4°C 64.8°F18.2°C 93% Calm Calm 2.0 mph3.2 kmh 30.10 in1019.3 mb 0.00 in0.0 mm 0.00 in0.0 mm 0.01 in0.3 mm
07:29 PM 66.7°F19.3°C 64.6°F18.1°C 93% Calm Calm 1.0 mph1.6 kmh 30.10 in1019.3 mb 0.00 in0.0 mm 0.00 in0.0 mm 0.01 in0.3 mm
07:34 PM 66.6°F19.2°C 64.5°F18.1°C 93% Calm Calm 1.0 mph1.6 kmh 30.10 in1019.3 mb 0.00 in0.0 mm 0.00 in0.0 mm 0.01 in0.3 mm
07:39 PM 66.5°F19.2°C 64.4°F18.0°C 93% Calm Calm 1.0 mph1.6 kmh 30.10 in1019.3 mb 0.00 in0.0 mm 0.00 in0.0 mm 0.01 in0.3 mm
07:44 PM 66.4°F19.1°C 64.6°F18.1°C 94% 1.2 mph S1.9 kmh S 2.0 mph3.2 kmh 30.10 in1019.3 mb 0.00 in0.0 mm 0.00 in0.0 mm 0.01 in0.3 mm
07:49 PM 66.3°F19.1°C 64.5°F18.1°C 94% 1.0 mph S1.6 kmh S 3.0 mph4.8 kmh 30.10 in1019.3 mb 0.00 in0.0 mm 0.00 in0.0 mm 0.01 in0.3 mm
07:54 PM 66.2°F19.0°C 64.4°F18.0°C 94% 1.4 mph SSW2.3 kmh SSW 3.0 mph4.8 kmh 30.11 in1019.6 mb 0.00 in0.0 mm 0.00 in0.0 mm 0.01 in0.3 mm
07:59 PM 66.1°F18.9°C 64.3°F17.9°C 94% 1.9 mph S3.1 kmh S 4.0 mph6.4 kmh 30.10 in1019.3 mb 0.00 in0.0 mm 0.00 in0.0 mm 0.01 in0.3 mm
08:04 PM 66.0°F18.9°C 64.2°F17.9°C 94% 1.2 mph S1.9 kmh S 4.0 mph6.4 kmh 30.10 in1019.3 mb 0.00 in0.0 mm 0.00 in0.0 mm 0.01 in0.3 mm
08:09 PM 65.9°F18.8°C 64.1°F17.8°C 94% 1.6 mph S2.6 kmh S 4.0 mph6.4 kmh 30.10 in1019.3 mb 0.00 in0.0 mm 0.00 in0.0 mm 0.01 in0.3 mm
08:14 PM 65.8°F18.8°C 64.3°F17.9°C 95% 2.3 mph S3.7 kmh S 5.0 mph8.0 kmh 30.11 in1019.6 mb 0.00 in0.0 mm 0.00 in0.0 mm 0.01 in0.3 mm
08:19 PM 65.7°F18.7°C 63.9°F17.7°C 94% 2.3 mph S3.7 kmh S 6.0 mph9.7 kmh 30.10 in1019.3 mb 0.00 in0.0 mm 0.00 in0.0 mm 0.01 in0.3 mm
08:24 PM 65.7°F18.7°C 64.2°F17.9°C 95% 2.0 mph S3.2 kmh S 6.0 mph9.7 kmh 30.11 in1019.6 mb 0.00 in0.0 mm 0.00 in0.0 mm 0.01 in0.3 mm
08:29 PM 65.6°F18.7°C 64.1°F17.8°C 95% 1.6 mph S2.6 kmh S 6.0 mph9.7 kmh 30.11 in1019.6 mb 0.00 in0.0 mm 0.00 in0.0 mm 0.01 in0.3 mm
08:34 PM 65.4°F18.6°C 63.9°F17.7°C 95% 1.7 mph SSW2.7 kmh SSW 6.0 mph9.7 kmh 30.11 in1019.6 mb 0.00 in0.0 mm 0.00 in0.0 mm 0.01 in0.3 mm
08:39 PM 65.3°F18.5°C 63.8°F17.7°C 95% 1.7 mph SW2.7 kmh SW 5.0 mph8.0 kmh 30.11 in1019.6 mb 0.00 in0.0 mm 0.00 in0.0 mm 0.01 in0.3 mm
08:44 PM 65.2°F18.4°C 63.7°F17.6°C 95% 1.8 mph SSW2.9 kmh SSW 5.0 mph8.0 kmh 30.11 in1019.6 mb 0.00 in0.0 mm 0.00 in0.0 mm 0.01 in0.3 mm
08:49 PM 65.1°F18.4°C 63.6°F17.6°C 95% 1.8 mph SSW2.9 kmh SSW 5.0 mph8.0 kmh 30.11 in1019.6 mb 0.00 in0.0 mm 0.00 in0.0 mm 0.01 in0.3 mm
08:54 PM 65.0°F18.3°C 63.5°F17.5°C 95% 1.7 mph S2.7 kmh S 5.0 mph8.0 kmh 30.10 in1019.3 mb 0.00 in0.0 mm 0.00 in0.0 mm 0.01 in0.3 mm
08:59 PM 64.9°F18.3°C 63.7°F17.6°C 96% 1.9 mph S3.1 kmh S 5.0 mph8.0 kmh 30.10 in1019.3 mb 0.00 in0.0 mm 0.00 in0.0 mm 0.01 in0.3 mm
09:04 PM 64.8°F18.2°C 63.6°F17.6°C 96% 1.5 mph S2.4 kmh S 5.0 mph8.0 kmh 30.11 in1019.6 mb 0.00 in0.0 mm 0.00 in0.0 mm 0.01 in0.3 mm
09:09 PM 64.7°F18.2°C 63.5°F17.5°C 96% 2.1 mph S3.4 kmh S 5.0 mph8.0 kmh 30.11 in1019.6 mb 0.00 in0.0 mm 0.00 in0.0 mm 0.01 in0.3 mm
09:14 PM 64.7°F18.2°C 63.5°F17.5°C 96% 1.5 mph S2.4 kmh S 5.0 mph8.0 kmh 30.11 in1019.6 mb 0.00 in0.0 mm 0.00 in0.0 mm 0.01 in0.3 mm
09:19 PM 64.6°F18.1°C 63.4°F17.4°C 96% 1.3 mph S2.1 kmh S 5.0 mph8.0 kmh 30.11 in1019.6 mb 0.00 in0.0 mm 0.00 in0.0 mm 0.01 in0.3 mm
09:24 PM 64.5°F18.1°C 63.3°F17.4°C 96% 1.7 mph S2.7 kmh S 5.0 mph8.0 kmh 30.11 in1019.6 mb 0.00 in0.0 mm 0.00 in0.0 mm 0.01 in0.3 mm
09:29 PM 64.5°F18.1°C 63.3°F17.4°C 96% 1.7 mph S2.7 kmh S 5.0 mph8.0 kmh 30.11 in1019.6 mb 0.00 in0.0 mm 0.00 in0.0 mm 0.01 in0.3 mm
09:34 PM 64.5°F18.1°C 63.3°F17.4°C 96% 1.5 mph S2.4 kmh S 5.0 mph8.0 kmh 30.11 in1019.6 mb 0.00 in0.0 mm 0.00 in0.0 mm 0.01 in0.3 mm
09:39 PM 64.4°F18.0°C 63.2°F17.3°C 96% 1.6 mph S2.6 kmh S 5.0 mph8.0 kmh 30.11 in1019.6 mb 0.00 in0.0 mm 0.00 in0.0 mm 0.01 in0.3 mm
09:44 PM 64.4°F18.0°C 63.2°F17.3°C 96% 1.6 mph S2.6 kmh S 4.0 mph6.4 kmh 30.11 in1019.6 mb 0.00 in0.0 mm 0.00 in0.0 mm 0.01 in0.3 mm
09:49 PM 64.3°F17.9°C 63.1°F17.3°C 96% 2.1 mph SSW3.4 kmh SSW 4.0 mph6.4 kmh 30.11 in1019.6 mb 0.00 in0.0 mm 0.00 in0.0 mm 0.01 in0.3 mm
09:54 PM 64.3°F17.9°C 63.1°F17.3°C 96% 1.8 mph S2.9 kmh S 4.0 mph6.4 kmh 30.11 in1019.6 mb 0.00 in0.0 mm 0.00 in0.0 mm 0.01 in0.3 mm
09:59 PM 64.2°F17.9°C 63.0°F17.2°C 96% 1.6 mph S2.6 kmh S 4.0 mph6.4 kmh 30.11 in1019.6 mb 0.00 in0.0 mm 0.00 in0.0 mm 0.01 in0.3 mm
10:04 PM 64.2°F17.9°C 63.0°F17.2°C 96% 1.9 mph S3.1 kmh S 4.0 mph6.4 kmh 30.11 in1019.6 mb 0.00 in0.0 mm 0.00 in0.0 mm 0.01 in0.3 mm
10:09 PM 64.1°F17.8°C 62.9°F17.2°C 96% 1.5 mph SSW2.4 kmh SSW 4.0 mph6.4 kmh 30.11 in1019.6 mb 0.00 in0.0 mm 0.00 in0.0 mm 0.01 in0.3 mm
10:14 PM 64.0°F17.8°C 62.8°F17.1°C 96% 1.7 mph SSW2.7 kmh SSW 4.0 mph6.4 kmh 30.11 in1019.6 mb 0.00 in0.0 mm 0.00 in0.0 mm 0.01 in0.3 mm
10:19 PM 63.9°F17.7°C 62.7°F17.1°C 96% 1.8 mph SSW2.9 kmh SSW 5.0 mph8.0 kmh 30.11 in1019.6 mb 0.00 in0.0 mm 0.00 in0.0 mm 0.01 in0.3 mm
10:24 PM 63.8°F17.7°C 62.6°F17.0°C 96% 1.6 mph S2.6 kmh S 5.0 mph8.0 kmh 30.11 in1019.6 mb 0.00 in0.0 mm 0.00 in0.0 mm 0.01 in0.3 mm
10:30 PM 63.7°F17.6°C 62.5°F16.9°C 96% 1.4 mph S2.3 kmh S 5.0 mph8.0 kmh 30.11 in1019.6 mb 0.00 in0.0 mm 0.00 in0.0 mm 0.01 in0.3 mm
10:35 PM 63.7°F17.6°C 62.8°F17.1°C 97% 1.5 mph S2.4 kmh S 4.0 mph6.4 kmh 30.11 in1019.6 mb 0.00 in0.0 mm 0.00 in0.0 mm 0.01 in0.3 mm
10:40 PM 63.5°F17.5°C 62.6°F17.0°C 97% 1.3 mph SSW2.1 kmh SSW 3.0 mph4.8 kmh 30.11 in1019.6 mb 0.00 in0.0 mm 0.00 in0.0 mm 0.01 in0.3 mm
10:45 PM 63.5°F17.5°C 62.6°F17.0°C 97% 1.1 mph S1.8 kmh S 4.0 mph6.4 kmh 30.11 in1019.6 mb 0.00 in0.0 mm 0.00 in0.0 mm 0.01 in0.3 mm
10:50 PM 63.4°F17.4°C 62.5°F16.9°C 97% 1.2 mph S1.9 kmh S 6.0 mph9.7 kmh 30.11 in1019.6 mb 0.00 in0.0 mm 0.00 in0.0 mm 0.01 in0.3 mm
10:55 PM 63.3°F17.4°C 62.4°F16.9°C 97% 1.8 mph SSW2.9 kmh SSW 6.0 mph9.7 kmh 30.11 in1019.6 mb 0.00 in0.0 mm 0.00 in0.0 mm 0.01 in0.3 mm
11:00 PM 63.3°F17.4°C 62.4°F16.9°C 97% 2.1 mph S3.4 kmh S 6.0 mph9.7 kmh 30.11 in1019.6 mb 0.00 in0.0 mm 0.00 in0.0 mm 0.01 in0.3 mm
11:05 PM 63.2°F17.3°C 62.3°F16.8°C 97% 1.5 mph SSW2.4 kmh SSW 6.0 mph9.7 kmh 30.11 in1019.6 mb 0.00 in0.0 mm 0.00 in0.0 mm 0.01 in0.3 mm
11:10 PM 63.2°F17.3°C 62.3°F16.8°C 97% 1.2 mph SSW1.9 kmh SSW 4.0 mph6.4 kmh 30.11 in1019.6 mb 0.00 in0.0 mm 0.00 in0.0 mm 0.01 in0.3 mm
11:15 PM 63.1°F17.3°C 62.2°F16.8°C 97% 1.4 mph SSW2.3 kmh SSW 4.0 mph6.4 kmh 30.11 in1019.6 mb 0.00 in0.0 mm 0.00 in0.0 mm 0.01 in0.3 mm
11:20 PM 63.0°F17.2°C 62.1°F16.7°C 97% 1.0 mph SSW1.6 kmh SSW 3.0 mph4.8 kmh 30.11 in1019.6 mb 0.00 in0.0 mm 0.00 in0.0 mm 0.01 in0.3 mm
11:25 PM 62.9°F17.2°C 62.0°F16.7°C 97% 1.1 mph SW1.8 kmh SW 3.0 mph4.8 kmh 30.12 in1020.0 mb 0.00 in0.0 mm 0.00 in0.0 mm 0.01 in0.3 mm
11:30 PM 62.9°F17.2°C 62.0°F16.7°C 97% 1.1 mph SW1.8 kmh SW 3.0 mph4.8 kmh 30.12 in1020.0 mb 0.00 in0.0 mm 0.00 in0.0 mm 0.01 in0.3 mm
11:35 PM 62.9°F17.2°C 62.0°F16.7°C 97% 1.8 mph SW2.9 kmh SW 4.0 mph6.4 kmh 30.12 in1020.0 mb 0.00 in0.0 mm 0.00 in0.0 mm 0.01 in0.3 mm
11:40 PM 62.8°F17.1°C 61.9°F16.6°C 97% 1.0 mph SW1.6 kmh SW 4.0 mph6.4 kmh 30.11 in1019.6 mb 0.00 in0.0 mm 0.00 in0.0 mm 0.01 in0.3 mm
11:45 PM 62.8°F17.1°C 61.9°F16.6°C 97% 1.0 mph SW1.6 kmh SW 4.0 mph6.4 kmh 30.11 in1019.6 mb 0.00 in0.0 mm 0.00 in0.0 mm 0.01 in0.3 mm
11:50 PM 62.7°F17.1°C 61.8°F16.6°C 97% 1.2 mph SW1.9 kmh SW 4.0 mph6.4 kmh 30.11 in1019.6 mb 0.00 in0.0 mm 0.00 in0.0 mm 0.01 in0.3 mm
11:55 PM 62.6°F17.0°C 61.7°F16.5°C 97% 1.0 mph SSW1.6 kmh SSW 2.0 mph3.2 kmh 30.11 in1019.6 mb 0.00 in0.0 mm 0.00 in0.0 mm 0.01 in0.3 mm
11:59 PM 62.6°F17.0°C 62.0°F16.7°C 98% 1.0 mph SW1.6 kmh SW 2.0 mph3.2 kmh 30.11 in1019.6 mb 0.00 in0.0 mm 0.00 in0.0 mm 0.01 in0.3 mm